Time;durP1;ratioP1;P1;durP2;ratioP2;P2;SDS_P1;SDS_P2;PMS_P1;PMS_P2;Temp;Humidity;BMP_temperature;BMP_pressure;BME280_temperature;BME280_humidity;BME280_pressure;Samples;Min_cycle;Max_cycle;Signal;HPM_P1;HPM_P2
2023/01/17 00:01:13;;;;;;;38.00;19.10;;;;;;;5.74;100.00;97844.69;683317;1260;138641;-78
2023/01/17 00:16:16;;;;;;;30.30;16.70;;;;;;;5.68;100.00;97828.09;683142;1262;138845;-79
2023/01/17 01:48:14;;;;;;;20.60;12.10;;;;;;;5.74;100.00;97673.13;683265;1262;138647;-78
2023/01/17 02:03:25;;;;;;;16.30;9.40;;;;;;;5.67;100.00;97648.37;683057;1261;139308;-79
2023/01/17 02:18:40;;;;;;;19.50;11.60;;;;;;;5.60;100.00;97635.77;683668;1260;138553;-79
2023/01/17 02:33:59;;;;;;;21.20;10.00;;;;;;;5.52;100.00;97627.09;683467;1263;139810;-79
2023/01/17 02:49:02;;;;;;;14.80;9.70;;;;;;;5.40;100.00;97599.54;683409;1260;138832;-79
2023/01/17 03:04:13;;;;;;;12.10;9.10;;;;;;;5.19;100.00;97582.36;683268;1263;138780;-79
2023/01/17 03:19:17;;;;;;;12.90;8.40;;;;;;;5.09;100.00;97572.11;683578;1261;139352;-79
2023/01/17 03:34:20;;;;;;;15.60;9.90;;;;;;;5.06;100.00;97557.56;683450;1261;138743;-79
2023/01/17 03:49:24;;;;;;;13.70;8.70;;;;;;;4.93;100.00;97530.91;683630;1260;138372;-79
2023/01/17 04:04:27;;;;;;;16.10;10.10;;;;;;;4.88;100.00;97532.83;683466;1261;139965;-79
2023/01/17 04:19:32;;;;;;;18.00;11.50;;;;;;;4.88;100.00;97513.67;683837;1260;138886;-79
2023/01/17 04:34:35;;;;;;;14.60;9.30;;;;;;;4.83;100.00;97508.45;683537;1258;138912;-78
2023/01/17 04:49:39;;;;;;;18.70;11.70;;;;;;;4.78;100.00;97503.58;683771;1258;138716;-79
2023/01/17 05:04:44;;;;;;;22.00;11.70;;;;;;;4.79;100.00;97487.39;683547;1260;139515;-80
2023/01/17 05:19:47;;;;;;;26.60;16.30;;;;;;;4.87;100.00;97475.52;683525;1257;139224;-77
2023/01/17 05:34:50;;;;;;;71.60;39.40;;;;;;;4.93;100.00;97491.93;683376;1256;140434;-77
2023/01/17 05:49:53;;;;;;;45.90;24.30;;;;;;;5.12;100.00;97490.92;683600;1257;139065;-78
2023/01/17 06:04:56;;;;;;;32.90;18.30;;;;;;;5.37;100.00;97495.14;683325;1262;140232;-78
2023/01/17 06:20:00;;;;;;;46.60;24.70;;;;;;;5.56;100.00;97503.95;683547;1257;138760;-78
2023/01/17 06:35:03;;;;;;;52.20;25.10;;;;;;;5.66;100.00;97511.52;683346;1257;139780;-78
2023/01/17 06:50:12;;;;;;;36.80;20.50;;;;;;;5.78;100.00;97516.89;683543;1260;139918;-78
2023/01/17 07:05:16;;;;;;;35.00;17.90;;;;;;;5.88;100.00;97521.18;683584;1257;139524;-77
2023/01/17 07:20:19;;;;;;;73.70;47.50;;;;;;;5.98;100.00;97518.89;683398;1260;140360;-77
2023/01/17 07:35:25;;;;;;;98.90;34.00;;;;;;;6.06;100.00;97521.80;683274;1260;139256;-78
2023/01/17 07:50:28;;;;;;;57.80;29.90;;;;;;;6.13;100.00;97522.05;683454;1256;139669;-78
2023/01/17 08:05:32;;;;;;;31.90;18.90;;;;;;;6.26;100.00;97526.41;683140;1257;138947;-78
2023/01/17 08:20:35;;;;;;;30.30;17.60;;;;;;;6.21;100.00;97540.92;683130;1260;139310;-78
2023/01/17 08:35:38;;;;;;;51.80;23.30;;;;;;;6.26;100.00;97545.98;683395;1258;139440;-78
2023/01/17 08:50:41;;;;;;;44.70;21.70;;;;;;;6.26;100.00;97548.09;683623;1260;140330;-78
2023/01/17 09:05:45;;;;;;;41.10;22.10;;;;;;;6.33;99.76;97554.76;683140;1260;139372;-79
2023/01/17 09:20:48;;;;;;;27.50;17.70;;;;;;;6.36;99.57;97574.18;683047;1263;138992;-79
2023/01/17 09:35:51;;;;;;;32.60;16.80;;;;;;;6.31;98.27;97570.33;683296;1259;139378;-79
2023/01/17 09:51:13;;;;;;;23.00;14.90;;;;;;;6.45;96.76;97564.50;683233;1260;138644;-80
2023/01/17 10:06:41;;;;;;;27.80;14.30;;;;;;;6.88;94.49;97567.13;683520;1260;140388;-79
2023/01/17 10:21:57;;;;;;;20.10;10.70;;;;;;;7.47;89.86;97553.70;683352;1260;140472;-79
2023/01/17 10:37:16;;;;;;;32.60;19.60;;;;;;;7.21;87.43;97567.11;683488;1257;138763;-80
2023/01/17 10:52:46;;;;;;;17.40;10.90;;;;;;;7.47;86.00;97578.99;683160;1257;139194;-80
2023/01/17 11:08:02;;;;;;;16.70;10.40;;;;;;;7.48;85.43;97582.96;683347;1256;138469;-80
2023/01/17 11:23:11;;;;;;;19.60;11.80;;;;;;;7.72;84.62;97571.45;683368;1260;138789;-79
2023/01/17 11:38:19;;;;;;;18.20;9.90;;;;;;;7.74;83.48;97563.57;683109;1259;138980;-79
2023/01/17 11:53:28;;;;;;;;;;;;;;;7.82;82.00;97573.45;683303;1260;138343;-79
2023/01/17 12:08:31;;;;;;;14.40;10.80;;;;;;;8.15;80.32;97572.63;683530;1257;124608;-78
2023/01/17 12:23:53;;;;;;;27.60;12.70;;;;;;;8.04;80.52;97574.45;683335;1260;139590;-79
2023/01/17 12:38:59;;;;;;;18.10;10.00;;;;;;;8.02;80.28;97571.38;683522;1256;139859;-80
2023/01/17 12:54:17;;;;;;;18.30;9.80;;;;;;;8.30;79.07;97583.41;683554;1260;138768;-79
2023/01/17 13:09:22;;;;;;;19.20;9.70;;;;;;;8.48;78.54;97611.36;683766;1260;139221;-77
2023/01/17 13:24:32;;;;;;;10.30;5.70;;;;;;;9.06;75.17;97624.04;683730;1261;138459;-79
2023/01/17 13:39:59;;;;;;;11.10;5.50;;;;;;;10.91;69.55;97645.51;683805;1260;138630;-76
2023/01/17 13:55:05;;;;;;;9.00;5.90;;;;;;;8.57;72.68;97664.10;683922;1260;138627;-77
2023/01/17 14:10:27;;;;;;;12.20;7.50;;;;;;;8.16;74.43;97671.73;683284;1261;139025;-79
2023/01/17 14:25:38;;;;;;;13.00;7.60;;;;;;;8.02;75.42;97689.63;683334;1260;141311;-79
2023/01/17 14:40:59;;;;;;;35.60;13.20;;;;;;;7.85;75.99;97706.72;683296;1262;140033;-80
2023/01/17 14:56:13;;;;;;;33.50;16.50;;;;;;;7.85;76.35;97729.20;683606;1263;139286;-79
2023/01/17 15:11:23;;;;;;;23.30;14.10;;;;;;;7.74;76.40;97755.36;683293;1262;139741;-79
2023/01/17 15:26:31;;;;;;;43.30;23.00;;;;;;;7.71;76.39;97786.14;683213;1261;138635;-80
2023/01/17 15:41:38;;;;;;;26.20;14.60;;;;;;;7.67;76.40;97794.64;683269;1260;139407;-79
2023/01/17 15:56:44;;;;;;;12.80;7.00;;;;;;;7.63;75.70;97807.94;683278;1263;141834;-79
2023/01/17 16:11:47;;;;;;;43.30;27.60;;;;;;;7.60;75.97;97815.44;683690;1257;138828;-79
2023/01/17 16:26:50;;;;;;;27.40;14.40;;;;;;;7.52;77.10;97827.64;683222;1263;139474;-79
2023/01/17 16:42:01;;;;;;;73.00;31.00;;;;;;;7.31;79.06;97851.75;683185;1263;138702;-79
2023/01/17 16:57:05;;;;;;;39.80;20.30;;;;;;;7.17;79.99;97870.20;683483;1261;140327;-80
2023/01/17 17:12:08;;;;;;;45.00;19.90;;;;;;;7.06;80.67;97882.85;683233;1262;138768;-80
2023/01/17 17:27:11;;;;;;;46.90;23.00;;;;;;;6.86;81.21;97899.29;682958;1260;140110;-80
2023/01/17 17:42:14;;;;;;;20.10;10.70;;;;;;;6.63;82.44;97894.73;683289;1263;139108;-79
2023/01/17 17:57:17;;;;;;;31.50;16.00;;;;;;;6.46;81.64;97893.60;683267;1262;139551;-79
2023/01/17 18:12:31;;;;;;;32.00;16.20;;;;;;;6.29;82.01;97903.94;683274;1263;139305;-79
2023/01/17 18:27:38;;;;;;;62.80;28.60;;;;;;;6.15;82.61;97912.84;682540;1262;140438;-80
2023/01/17 18:42:41;;;;;;;88.20;38.60;;;;;;;6.01;83.41;97928.54;682797;1259;140169;-79
2023/01/17 18:57:45;;;;;;;45.90;21.30;;;;;;;5.98;84.07;97950.08;682703;1262;138609;-78
2023/01/17 19:12:48;;;;;;;41.20;18.60;;;;;;;5.85;84.68;97961.33;683018;1263;139730;-79
2023/01/17 19:27:52;;;;;;;47.90;24.60;;;;;;;5.67;83.87;97994.34;683147;1263;139380;-79
2023/01/17 19:42:55;;;;;;;95.00;43.90;;;;;;;5.35;85.31;98003.53;683280;1264;138594;-75
2023/01/17 19:57:59;;;;;;;120.70;36.80;;;;;;;5.11;86.10;98005.83;683160;1261;138712;-77
2023/01/17 20:13:03;;;;;;;55.50;22.80;;;;;;;4.91;86.59;98031.75;683422;1261;139811;-79
2023/01/17 20:28:06;;;;;;;69.40;23.50;;;;;;;4.66;86.99;98060.37;683215;1260;139798;-78
2023/01/17 20:43:10;;;;;;;52.40;20.10;;;;;;;4.53;87.89;98104.91;683269;1258;138380;-78
2023/01/17 20:58:14;;;;;;;68.20;25.60;;;;;;;4.48;87.74;98127.17;683194;1261;139055;-78
2023/01/17 21:13:19;;;;;;;75.30;35.70;;;;;;;4.35;87.36;98155.47;683243;1263;139534;-78
2023/01/17 21:28:28;;;;;;;34.30;16.50;;;;;;;4.13;87.38;98149.33;682891;1259;143551;-78
2023/01/17 21:43:32;;;;;;;22.40;12.40;;;;;;;4.10;87.73;98154.48;683239;1262;138795;-79
2023/01/17 21:58:44;;;;;;;24.60;11.30;;;;;;;4.02;87.36;98151.15;683045;1257;138722;-77
2023/01/17 22:13:48;;;;;;;30.40;14.60;;;;;;;3.87;87.47;98170.01;683186;1267;138633;-79
2023/01/17 22:28:51;;;;;;;75.40;25.00;;;;;;;3.76;88.32;98186.89;683144;1263;140745;-79
2023/01/17 22:43:57;;;;;;;31.20;14.00;;;;;;;3.69;87.86;98190.02;683240;1260;139045;-79
2023/01/17 22:59:01;;;;;;;36.70;17.00;;;;;;;3.56;87.97;98188.29;683174;1257;139839;-79
2023/01/17 23:14:07;;;;;;;42.40;19.90;;;;;;;3.31;87.42;98192.75;683418;1259;139266;-79
2023/01/17 23:29:10;;;;;;;36.60;16.80;;;;;;;3.00;87.06;98185.91;683111;1260;139035;-79
2023/01/17 23:44:14;;;;;;;108.70;36.40;;;;;;;2.84;87.37;98191.95;682933;1256;139245;-78
2023/01/17 23:59:17;;;;;;;169.30;53.50;;;;;;;2.45;86.83;98196.35;683218;1257;138774;-78
